Time;durP1;ratioP1;P1;durP2;ratioP2;P2;SDS_P1;SDS_P2;PMS_P1;PMS_P2;Temp;Humidity;BMP_temperature;BMP_pressure;BME280_temperature;BME280_humidity;BME280_pressure;Samples;Min_cycle;Max_cycle;Signal;HPM_P1;HPM_P2
2024/03/06 00:01:57;;;;;;;20.35;19.20;;;;;;;;;;5063903;28;20032;-60
2024/03/06 00:04:43;;;;;;;22.27;20.73;;;;;;;;;;5049063;28;20040;-60
2024/03/06 00:07:29;;;;;;;20.55;18.92;;;;;;;;;;5067611;28;20032;-60
2024/03/06 00:10:14;;;;;;;21.75;20.55;;;;;;;;;;5052759;28;20390;-60
2024/03/06 00:13:00;;;;;;;21.38;20.17;;;;;;;;;;5066769;28;20056;-60
2024/03/06 00:15:45;;;;;;;21.30;20.02;;;;;;;;;;5069451;28;20042;-60
2024/03/06 00:18:31;;;;;;;21.50;20.30;;;;;;;;;;5067616;28;20127;-60
2024/03/06 00:21:17;;;;;;;21.25;20.02;;;;;;;;;;5067844;28;20123;-60
2024/03/06 00:24:06;;;;;;;22.67;21.42;;;;;;;;;;5065814;28;20040;-60
2024/03/06 00:26:52;;;;;;;22.15;20.85;;;;;;;;;;5066198;28;20044;-63
2024/03/06 00:29:38;;;;;;;20.85;19.65;;;;;;;;;;5065813;28;20047;-60
2024/03/06 00:32:23;;;;;;;22.85;21.55;;;;;;;;;;5049432;28;20041;-60
2024/03/06 00:35:09;;;;;;;21.10;19.90;;;;;;;;;;5063873;28;20040;-60
2024/03/06 00:37:54;;;;;;;20.75;19.55;;;;;;;;;;5064088;28;20043;-60
2024/03/06 00:40:40;;;;;;;23.50;21.90;;;;;;;;;;5063513;28;20075;-60
2024/03/06 00:43:26;;;;;;;25.60;24.20;;;;;;;;;;5062859;28;20135;-59
2024/03/06 00:46:11;;;;;;;26.67;25.17;;;;;;;;;;5064061;28;20048;-60
2024/03/06 00:48:57;;;;;;;27.70;26.23;;;;;;;;;;5065219;28;20044;-60
2024/03/06 00:51:43;;;;;;;29.02;27.30;;;;;;;;;;5064662;28;20036;-60
2024/03/06 00:54:28;;;;;;;28.02;26.42;;;;;;;;;;5063508;28;20039;-60
2024/03/06 00:57:14;;;;;;;29.08;27.58;;;;;;;;;;5063238;28;20032;-60
2024/03/06 01:00:00;;;;;;;35.55;33.60;;;;;;;;;;5066337;28;20032;-60
2024/03/06 01:02:45;;;;;;;36.70;34.65;;;;;;;;;;5063671;28;20649;-60
2024/03/06 01:05:31;;;;;;;33.05;31.10;;;;;;;;;;5048330;28;20047;-60
2024/03/06 01:08:17;;;;;;;36.75;34.85;;;;;;;;;;5066048;28;20032;-60
2024/03/06 01:11:04;;;;;;;37.38;35.38;;;;;;;;;;5064272;28;20322;-60
2024/03/06 01:13:49;;;;;;;39.30;37.28;;;;;;;;;;5061995;28;20043;-60
2024/03/06 01:16:35;;;;;;;42.28;40.03;;;;;;;;;;5061981;28;20043;-60
2024/03/06 01:19:21;;;;;;;40.33;38.20;;;;;;;;;;5060941;28;20041;-60
2024/03/06 01:22:07;;;;;;;39.53;37.42;;;;;;;;;;5062783;28;20406;-60
2024/03/06 01:24:53;;;;;;;40.78;38.67;;;;;;;;;;5060834;28;20048;-59
2024/03/06 01:27:39;;;;;;;43.65;41.20;;;;;;;;;;5062854;28;20064;-60
2024/03/06 01:30:24;;;;;;;42.65;40.38;;;;;;;;;;5066613;28;20028;-60
2024/03/06 01:33:10;;;;;;;40.55;38.45;;;;;;;;;;5060623;28;20151;-60
2024/03/06 01:35:55;;;;;;;41.90;38.22;;;;;;;;;;5052182;28;20120;-60
2024/03/06 01:38:41;;;;;;;38.28;35.67;;;;;;;;;;5067168;28;20040;-60
2024/03/06 01:41:27;;;;;;;38.15;36.10;;;;;;;;;;5067669;28;20043;-60
2024/03/06 01:44:14;;;;;;;37.60;35.47;;;;;;;;;;5066884;28;20365;-60
2024/03/06 01:47:00;;;;;;;38.97;36.88;;;;;;;;;;5065061;28;20488;-60
2024/03/06 01:49:46;;;;;;;40.30;38.20;;;;;;;;;;5066023;28;20044;-60
2024/03/06 01:52:31;;;;;;;40.53;38.42;;;;;;;;;;5064090;28;20090;-60
2024/03/06 01:55:18;;;;;;;42.70;40.45;;;;;;;;;;5062112;28;20087;-60
2024/03/06 01:58:05;;;;;;;41.78;39.58;;;;;;;;;;5063215;28;20040;-60
2024/03/06 02:00:52;;;;;;;41.53;39.33;;;;;;;;;;5062002;28;20390;-60
2024/03/06 02:03:38;;;;;;;42.17;39.88;;;;;;;;;;5058602;28;20044;-60
2024/03/06 02:06:23;;;;;;;42.78;40.58;;;;;;;;;;5061597;28;20168;-60
2024/03/06 02:09:09;;;;;;;41.47;39.30;;;;;;;;;;5063750;28;20032;-60
2024/03/06 02:11:55;;;;;;;45.47;43.08;;;;;;;;;;5058744;28;20040;-60
2024/03/06 02:14:40;;;;;;;45.22;42.92;;;;;;;;;;5058999;28;20443;-60
2024/03/06 02:17:29;;;;;;;45.40;43.10;;;;;;;;;;5046533;28;20051;-60
2024/03/06 02:20:15;;;;;;;49.45;46.88;;;;;;;;;;5063474;28;20029;-60
2024/03/06 02:23:01;;;;;;;46.65;44.25;;;;;;;;;;5064603;28;20047;-60
2024/03/06 02:25:47;;;;;;;47.50;45.03;;;;;;;;;;5063457;28;20039;-60
2024/03/06 02:28:34;;;;;;;42.80;40.63;;;;;;;;;;5063723;28;20093;-60
2024/03/06 02:31:21;;;;;;;43.63;41.22;;;;;;;;;;5064429;28;20044;-59
2024/03/06 02:34:07;;;;;;;43.83;41.47;;;;;;;;;;5061204;28;20548;-59
2024/03/06 02:36:52;;;;;;;45.97;43.63;;;;;;;;;;5066610;28;20032;-59
2024/03/06 02:39:38;;;;;;;44.72;42.20;;;;;;;;;;5062697;28;20040;-60
2024/03/06 02:42:23;;;;;;;48.45;45.88;;;;;;;;;;5061217;28;20036;-60
2024/03/06 02:45:09;;;;;;;46.80;44.22;;;;;;;;;;5061479;28;20039;-59
2024/03/06 02:47:55;;;;;;;52.40;48.95;;;;;;;;;;5061304;28;20101;-60
2024/03/06 02:50:40;;;;;;;47.95;45.42;;;;;;;;;;5062306;28;20101;-59
2024/03/06 02:53:27;;;;;;;45.83;43.45;;;;;;;;;;5062142;28;20116;-59
2024/03/06 02:56:19;;;;;;;46.40;43.40;;;;;;;;;;5064916;28;20147;-60
2024/03/06 02:59:05;;;;;;;43.42;41.20;;;;;;;;;;5063463;28;20351;-59
2024/03/06 03:01:50;;;;;;;40.83;38.72;;;;;;;;;;5067970;28;20052;-60
2024/03/06 03:04:36;;;;;;;36.40;34.50;;;;;;;;;;5066366;28;20045;-59
2024/03/06 03:07:23;;;;;;;35.63;33.63;;;;;;;;;;5062807;28;20033;-60
2024/03/06 03:10:10;;;;;;;41.35;39.08;;;;;;;;;;5066626;28;20037;-59
2024/03/06 03:12:56;;;;;;;44.92;42.55;;;;;;;;;;5067905;28;20028;-59
2024/03/06 03:15:41;;;;;;;47.25;44.85;;;;;;;;;;5063629;28;20071;-59
2024/03/06 03:18:27;;;;;;;48.40;45.85;;;;;;;;;;5062292;28;20046;-60
2024/03/06 03:21:13;;;;;;;43.22;41.00;;;;;;;;;;5061450;28;20047;-59
2024/03/06 03:23:58;;;;;;;42.95;40.65;;;;;;;;;;5062442;28;20047;-60
2024/03/06 03:26:44;;;;;;;41.45;39.25;;;;;;;;;;5061662;28;20044;-59
2024/03/06 03:29:30;;;;;;;41.65;39.40;;;;;;;;;;5064235;28;20044;-59
2024/03/06 03:32:16;;;;;;;48.95;46.38;;;;;;;;;;5063508;28;20143;-59
2024/03/06 03:35:03;;;;;;;47.95;45.47;;;;;;;;;;5065542;28;20035;-59
2024/03/06 03:37:51;;;;;;;50.15;47.42;;;;;;;;;;5065196;28;20540;-59
2024/03/06 03:40:37;;;;;;;45.95;43.55;;;;;;;;;;5068252;28;20031;-59
2024/03/06 03:43:23;;;;;;;43.85;41.58;;;;;;;;;;5065715;28;20071;-59
2024/03/06 03:46:09;;;;;;;40.45;38.33;;;;;;;;;;5067769;28;20573;-59
2024/03/06 03:48:55;;;;;;;38.45;36.25;;;;;;;;;;5067335;28;20040;-59
2024/03/06 03:51:40;;;;;;;39.30;37.15;;;;;;;;;;5064691;28;20040;-59
2024/03/06 03:54:26;;;;;;;34.97;33.15;;;;;;;;;;5066397;28;20387;-59
2024/03/06 03:57:14;;;;;;;36.88;34.90;;;;;;;;;;5065715;28;20102;-59
2024/03/06 03:59:59;;;;;;;36.17;34.28;;;;;;;;;;5065272;28;20037;-62
2024/03/06 04:02:45;;;;;;;39.25;37.17;;;;;;;;;;5065384;28;20041;-59
2024/03/06 04:05:31;;;;;;;39.25;37.15;;;;;;;;;;5066723;28;20038;-59
2024/03/06 04:08:17;;;;;;;36.95;35.05;;;;;;;;;;5066974;28;20029;-59
2024/03/06 04:11:03;;;;;;;36.95;34.85;;;;;;;;;;5063828;28;20041;-59
2024/03/06 04:13:49;;;;;;;35.17;33.33;;;;;;;;;;5065997;28;20132;-60
2024/03/06 04:16:34;;;;;;;36.58;34.65;;;;;;;;;;5052961;28;20740;-59
2024/03/06 04:19:20;;;;;;;33.58;31.80;;;;;;;;;;5066459;28;20041;-59
2024/03/06 04:22:06;;;;;;;32.65;30.88;;;;;;;;;;5065782;28;20029;-59
2024/03/06 04:24:51;;;;;;;32.97;31.17;;;;;;;;;;5063759;28;20028;-59
2024/03/06 04:27:37;;;;;;;32.05;30.23;;;;;;;;;;5064500;28;20039;-59
2024/03/06 04:30:23;;;;;;;32.53;30.77;;;;;;;;;;5064723;28;20064;-59
2024/03/06 04:33:08;;;;;;;33.55;31.73;;;;;;;;;;5061237;28;20093;-59
2024/03/06 04:35:54;;;;;;;32.80;31.00;;;;;;;;;;5062044;28;20477;-59
2024/03/06 04:38:39;;;;;;;34.83;33.03;;;;;;;;;;5074926;28;20036;-59
2024/03/06 04:41:25;;;;;;;33.72;31.92;;;;;;;;;;5057155;28;20062;-59
2024/03/06 04:44:11;;;;;;;33.28;31.17;;;;;;;;;;5059916;28;20066;-59
2024/03/06 04:46:56;;;;;;;32.40;30.70;;;;;;;;;;5055901;28;20044;-59
2024/03/06 04:49:42;;;;;;;32.15;30.42;;;;;;;;;;5062986;28;20135;-59
2024/03/06 04:52:28;;;;;;;34.55;32.72;;;;;;;;;;5058933;28;20037;-59
2024/03/06 04:55:14;;;;;;;35.15;33.00;;;;;;;;;;5058666;28;20048;-59
2024/03/06 04:58:00;;;;;;;31.85;30.10;;;;;;;;;;5060630;28;20198;-59
2024/03/06 05:00:46;;;;;;;31.17;29.42;;;;;;;;;;5056401;28;20198;-59
2024/03/06 05:03:31;;;;;;;29.80;28.20;;;;;;;;;;5059543;28;20066;-59
2024/03/06 05:06:17;;;;;;;29.77;28.13;;;;;;;;;;5045290;28;20472;-59
2024/03/06 05:09:03;;;;;;;27.13;25.60;;;;;;;;;;5061987;28;20041;-59
2024/03/06 05:11:50;;;;;;;28.10;26.60;;;;;;;;;;5061900;28;20551;-59
2024/03/06 05:14:36;;;;;;;31.20;29.45;;;;;;;;;;5057673;28;20028;-59
2024/03/06 05:17:23;;;;;;;34.35;32.15;;;;;;;;;;5060747;28;20463;-59
2024/03/06 05:20:09;;;;;;;36.17;34.30;;;;;;;;;;5061332;28;20071;-59
2024/03/06 05:22:54;;;;;;;34.80;32.95;;;;;;;;;;5061535;28;20069;-59
2024/03/06 05:25:41;;;;;;;38.70;36.67;;;;;;;;;;5059682;28;20453;-59
2024/03/06 05:28:26;;;;;;;37.13;35.15;;;;;;;;;;5060775;28;20041;-60
2024/03/06 05:31:19;;;;;;;30.83;29.23;;;;;;;;;;5061826;28;20027;-60
2024/03/06 05:34:05;;;;;;;33.58;31.80;;;;;;;;;;5063160;28;20540;-60
2024/03/06 05:36:51;;;;;;;31.48;29.80;;;;;;;;;;5058288;28;20028;-60
2024/03/06 05:39:37;;;;;;;34.85;33.00;;;;;;;;;;5060706;28;20040;-60
2024/03/06 05:42:23;;;;;;;35.30;33.42;;;;;;;;;;5058293;28;20033;-60
2024/03/06 05:45:12;;;;;;;32.95;31.25;;;;;;;;;;5059656;28;20043;-60
2024/03/06 05:47:57;;;;;;;31.85;29.80;;;;;;;;;;5057065;28;20164;-60
2024/03/06 05:50:44;;;;;;;29.02;27.45;;;;;;;;;;5058207;28;20128;-60
2024/03/06 05:53:30;;;;;;;30.35;28.70;;;;;;;;;;5060738;28;20116;-60
2024/03/06 05:56:18;;;;;;;27.55;25.90;;;;;;;;;;5059089;28;20381;-60
2024/03/06 05:59:04;;;;;;;28.73;27.13;;;;;;;;;;5060340;28;20036;-60
2024/03/06 06:01:50;;;;;;;30.55;28.70;;;;;;;;;;5058977;28;20395;-60
2024/03/06 06:04:35;;;;;;;32.83;30.83;;;;;;;;;;5058362;28;20036;-61
2024/03/06 06:07:21;;;;;;;35.03;33.17;;;;;;;;;;5045077;28;20126;-60
2024/03/06 06:10:09;;;;;;;33.25;31.52;;;;;;;;;;5062007;28;20040;-60
2024/03/06 06:12:55;;;;;;;34.58;32.72;;;;;;;;;;5060317;28;20474;-60
2024/03/06 06:15:41;;;;;;;39.65;37.60;;;;;;;;;;5062685;28;20072;-60
2024/03/06 06:18:26;;;;;;;39.85;37.67;;;;;;;;;;5061894;28;20039;-60
2024/03/06 06:21:12;;;;;;;41.88;39.70;;;;;;;;;;5058191;28;20040;-60
2024/03/06 06:23:58;;;;;;;41.97;39.45;;;;;;;;;;5059009;28;20033;-60
2024/03/06 06:26:43;;;;;;;38.80;36.50;;;;;;;;;;5043967;28;20040;-60
2024/03/06 06:29:29;;;;;;;35.35;33.53;;;;;;;;;;5060524;28;20214;-59
2024/03/06 06:32:15;;;;;;;35.00;33.15;;;;;;;;;;5058252;28;20529;-60
2024/03/06 06:35:00;;;;;;;35.13;33.33;;;;;;;;;;5057997;28;20040;-60
2024/03/06 06:37:46;;;;;;;34.30;32.45;;;;;;;;;;5060090;28;20075;-60
2024/03/06 06:40:31;;;;;;;32.42;30.67;;;;;;;;;;5058389;28;20118;-60
2024/03/06 06:43:17;;;;;;;33.17;31.27;;;;;;;;;;5057128;28;20052;-60
2024/03/06 06:46:05;;;;;;;36.88;34.63;;;;;;;;;;5056559;28;20496;-60
2024/03/06 06:48:51;;;;;;;35.95;34.05;;;;;;;;;;5055355;28;20027;-60
2024/03/06 06:51:36;;;;;;;38.08;35.97;;;;;;;;;;5061764;28;20040;-60
2024/03/06 06:54:22;;;;;;;38.08;36.10;;;;;;;;;;5059196;28;20102;-60
2024/03/06 06:57:08;;;;;;;35.42;33.58;;;;;;;;;;5057581;28;20115;-60
2024/03/06 06:59:53;;;;;;;35.13;33.22;;;;;;;;;;5041435;28;20045;-60
2024/03/06 07:02:40;;;;;;;35.05;33.17;;;;;;;;;;5059403;28;20048;-60
2024/03/06 07:05:26;;;;;;;35.63;33.63;;;;;;;;;;5058734;28;20037;-60
2024/03/06 07:08:12;;;;;;;35.15;33.30;;;;;;;;;;5064819;28;20472;-60
2024/03/06 07:10:57;;;;;;;32.83;31.02;;;;;;;;;;5059729;28;20036;-60
2024/03/06 07:13:43;;;;;;;33.35;31.55;;;;;;;;;;5064132;28;20066;-60
2024/03/06 07:16:28;;;;;;;35.70;33.72;;;;;;;;;;5062092;28;20060;-60
2024/03/06 07:19:14;;;;;;;35.25;33.15;;;;;;;;;;5065067;28;20759;-60
2024/03/06 07:22:00;;;;;;;38.45;36.40;;;;;;;;;;5060523;28;20032;-60
2024/03/06 07:24:45;;;;;;;39.17;36.67;;;;;;;;;;5063148;28;20074;-60
2024/03/06 07:27:31;;;;;;;40.50;38.35;;;;;;;;;;5063175;28;20037;-61
2024/03/06 07:30:17;;;;;;;41.03;38.90;;;;;;;;;;5060658;28;20032;-60
2024/03/06 07:33:02;;;;;;;43.78;41.42;;;;;;;;;;5060634;28;20051;-60
2024/03/06 07:35:48;;;;;;;38.75;36.63;;;;;;;;;;5061480;28;20063;-60
2024/03/06 07:38:34;;;;;;;42.05;39.80;;;;;;;;;;5062141;28;20653;-60
2024/03/06 07:41:19;;;;;;;45.25;42.80;;;;;;;;;;5062757;28;20421;-60
2024/03/06 07:44:05;;;;;;;44.83;42.40;;;;;;;;;;5062043;28;20381;-60
2024/03/06 07:46:53;;;;;;;45.80;43.42;;;;;;;;;;5060784;28;20384;-60
2024/03/06 07:49:38;;;;;;;42.92;40.65;;;;;;;;;;5063374;28;20047;-60
2024/03/06 07:52:24;;;;;;;44.85;42.55;;;;;;;;;;5058500;28;20044;-60
2024/03/06 07:55:10;;;;;;;47.40;44.72;;;;;;;;;;5060840;28;20043;-60
2024/03/06 07:57:55;;;;;;;47.28;44.47;;;;;;;;;;5044958;28;20040;-60
2024/03/06 08:00:41;;;;;;;44.33;42.03;;;;;;;;;;5062398;28;20104;-60
2024/03/06 08:03:27;;;;;;;43.55;41.33;;;;;;;;;;5057972;28;20045;-60
2024/03/06 08:06:15;;;;;;;42.75;40.55;;;;;;;;;;5064597;28;20135;-60
2024/03/06 08:09:02;;;;;;;43.90;41.58;;;;;;;;;;5059754;28;20128;-60
2024/03/06 08:11:47;;;;;;;43.60;41.25;;;;;;;;;;5060753;28;20191;-60
2024/03/06 08:14:33;;;;;;;40.83;38.72;;;;;;;;;;5060807;28;20041;-60
2024/03/06 08:17:18;;;;;;;39.75;37.65;;;;;;;;;;5049947;28;20462;-60
2024/03/06 08:20:07;;;;;;;34.15;32.28;;;;;;;;;;5059429;28;20466;-60
2024/03/06 08:22:53;;;;;;;38.00;36.00;;;;;;;;;;5060135;28;20047;-60
2024/03/06 08:25:39;;;;;;;36.80;34.88;;;;;;;;;;5058755;28;20040;-60
2024/03/06 08:28:25;;;;;;;38.75;36.65;;;;;;;;;;5060979;28;20036;-60
2024/03/06 08:31:10;;;;;;;39.00;36.90;;;;;;;;;;5059470;28;20702;-60
2024/03/06 08:33:56;;;;;;;43.67;41.40;;;;;;;;;;5064186;28;20068;-60
2024/03/06 08:36:42;;;;;;;43.58;41.35;;;;;;;;;;5058093;28;20158;-60
2024/03/06 08:39:27;;;;;;;41.72;39.53;;;;;;;;;;5062366;28;20667;-60
2024/03/06 08:42:13;;;;;;;40.10;37.92;;;;;;;;;;5058706;28;20032;-60
2024/03/06 08:44:59;;;;;;;39.20;37.10;;;;;;;;;;5060731;28;20120;-60
2024/03/06 08:47:47;;;;;;;43.53;41.05;;;;;;;;;;5065140;28;20059;-60
2024/03/06 08:50:32;;;;;;;41.50;39.25;;;;;;;;;;5063417;28;20020;-60
2024/03/06 08:53:18;;;;;;;36.17;34.08;;;;;;;;;;5060819;28;20563;-61
2024/03/06 08:56:05;;;;;;;33.45;31.63;;;;;;;;;;5058639;28;20116;-61
2024/03/06 08:58:50;;;;;;;39.72;37.53;;;;;;;;;;5058807;28;20608;-61
2024/03/06 09:01:36;;;;;;;38.33;36.20;;;;;;;;;;5064453;28;20497;-61
2024/03/06 09:04:22;;;;;;;41.08;38.88;;;;;;;;;;5058761;28;20464;-61
2024/03/06 09:07:07;;;;;;;46.53;43.92;;;;;;;;;;5063239;28;20031;-61
2024/03/06 09:09:53;;;;;;;39.50;37.40;;;;;;;;;;5059525;28;20106;-61
2024/03/06 09:12:39;;;;;;;41.15;38.97;;;;;;;;;;5062192;28;20115;-61
2024/03/06 09:15:25;;;;;;;34.28;32.28;;;;;;;;;;5057660;28;20032;-61
2024/03/06 09:18:11;;;;;;;32.17;30.38;;;;;;;;;;5059325;28;20044;-61
2024/03/06 09:20:56;;;;;;;35.38;33.33;;;;;;;;;;5061154;28;20398;-61
2024/03/06 09:23:42;;;;;;;38.50;36.30;;;;;;;;;;5058554;28;20041;-61
2024/03/06 09:26:28;;;;;;;37.92;35.70;;;;;;;;;;5059482;28;20033;-61
2024/03/06 09:29:13;;;;;;;36.30;34.20;;;;;;;;;;5061516;28;20043;-61
2024/03/06 09:31:59;;;;;;;37.15;35.05;;;;;;;;;;5060538;28;20469;-61
2024/03/06 09:34:45;;;;;;;39.63;37.35;;;;;;;;;;5056244;28;20032;-61
2024/03/06 09:37:30;;;;;;;41.92;39.60;;;;;;;;;;5058628;28;20036;-61
2024/03/06 09:40:22;;;;;;;41.08;38.70;;;;;;;;;;5057018;28;20037;-61
2024/03/06 09:43:07;;;;;;;44.40;41.70;;;;;;;;;;5060105;28;20474;-61
2024/03/06 09:45:55;;;;;;;42.97;40.58;;;;;;;;;;5057628;28;20041;-61
2024/03/06 09:48:46;;;;;;;55.85;52.78;;;;;;;;;;5057305;28;20132;-61
2024/03/06 09:51:32;;;;;;;53.25;50.22;;;;;;;;;;5044280;28;20251;-61
2024/03/06 09:54:19;;;;;;;62.60;59.13;;;;;;;;;;5060823;28;20446;-61
2024/03/06 09:57:05;;;;;;;94.45;89.35;;;;;;;;;;5059254;28;20036;-61
2024/03/06 09:59:51;;;;;;;134.15;127.00;;;;;;;;;;5059674;28;20037;-60
2024/03/06 10:02:54;;;;;;;138.38;131.00;;;;;;;;;;5057157;28;20056;-61
2024/03/06 10:05:40;;;;;;;135.45;128.45;;;;;;;;;;5062340;28;20108;-61
2024/03/06 10:08:27;;;;;;;135.85;128.48;;;;;;;;;;5061440;28;20458;-62
2024/03/06 10:11:13;;;;;;;128.57;122.05;;;;;;;;;;5043307;28;20032;-61
2024/03/06 10:13:59;;;;;;;120.60;114.45;;;;;;;;;;5064588;28;20567;-61
2024/03/06 10:16:56;;;;;;;108.38;102.82;;;;;;;;;;5044476;28;20036;-61
2024/03/06 10:19:45;;;;;;;84.35;79.90;;;;;;;;;;5063517;28;20032;-62
2024/03/06 10:22:31;;;;;;;85.70;81.28;;;;;;;;;;5056638;28;20040;-62
2024/03/06 10:25:19;;;;;;;85.68;81.15;;;;;;;;;;5060802;28;20029;-61
2024/03/06 10:28:06;;;;;;;89.97;84.88;;;;;;;;;;5057720;28;20428;-62
2024/03/06 10:31:03;;;;;;;72.20;68.25;;;;;;;;;;5056484;28;20037;-62
2024/03/06 10:33:49;;;;;;;54.60;51.50;;;;;;;;;;5057534;28;20174;-61
2024/03/06 10:36:37;;;;;;;41.85;39.15;;;;;;;;;;5050078;28;20025;-61
2024/03/06 10:39:24;;;;;;;40.78;38.33;;;;;;;;;;5059001;28;20041;-61
2024/03/06 10:42:13;;;;;;;71.40;66.60;;;;;;;;;;5064046;28;20043;-62
2024/03/06 10:45:01;;;;;;;75.85;71.75;;;;;;;;;;5061754;28;20123;-61
2024/03/06 10:47:47;;;;;;;75.65;71.70;;;;;;;;;;5060357;28;20465;-61
2024/03/06 10:50:33;;;;;;;81.57;77.32;;;;;;;;;;5063631;28;20037;-62
2024/03/06 10:53:19;;;;;;;79.05;74.50;;;;;;;;;;5061844;28;20759;-62
2024/03/06 10:56:08;;;;;;;71.50;67.70;;;;;;;;;;5063018;28;20458;-61
2024/03/06 10:58:57;;;;;;;69.18;65.38;;;;;;;;;;5061985;28;20043;-62
2024/03/06 11:01:44;;;;;;;65.72;61.85;;;;;;;;;;5062859;28;20052;-62
2024/03/06 11:04:34;;;;;;;67.18;63.60;;;;;;;;;;5061469;28;20037;-62
2024/03/06 11:07:20;;;;;;;70.95;67.10;;;;;;;;;;5060893;28;20153;-62
2024/03/06 11:10:07;;;;;;;79.15;74.65;;;;;;;;;;5063002;28;20458;-62
2024/03/06 11:12:53;;;;;;;75.82;71.70;;;;;;;;;;5059932;28;20129;-61
2024/03/06 11:15:38;;;;;;;73.07;69.38;;;;;;;;;;5052842;28;20101;-61
2024/03/06 11:18:33;;;;;;;65.55;62.00;;;;;;;;;;5046679;28;20044;-61
2024/03/06 11:21:22;;;;;;;45.97;43.20;;;;;;;;;;5060170;28;20039;-61
2024/03/06 11:24:32;;;;;;;42.88;40.55;;;;;;;;;;5048045;28;20668;-62
2024/03/06 11:27:17;;;;;;;45.08;42.30;;;;;;;;;;5062401;28;20070;-61
2024/03/06 11:30:13;;;;;;;44.55;41.55;;;;;;;;;;5062193;28;20112;-61
2024/03/06 11:33:03;;;;;;;44.30;41.90;;;;;;;;;;5062003;28;20048;-61
2024/03/06 11:36:17;;;;;;;43.50;41.08;;;;;;;;;;5063627;28;20177;-62
2024/03/06 11:39:07;;;;;;;33.80;31.90;;;;;;;;;;5059295;28;20097;-61
2024/03/06 11:41:53;;;;;;;38.70;36.60;;;;;;;;;;5060458;28;20177;-62
2024/03/06 11:44:54;;;;;;;29.52;27.83;;;;;;;;;;5076062;28;20108;-61
2024/03/06 11:47:59;;;;;;;30.98;29.17;;;;;;;;;;5061502;28;20447;-62
2024/03/06 11:50:45;;;;;;;29.75;28.00;;;;;;;;;;5060083;28;20028;-62
2024/03/06 11:53:33;;;;;;;29.33;27.73;;;;;;;;;;5059193;28;20044;-62
2024/03/06 11:56:19;;;;;;;32.53;30.60;;;;;;;;;;5059037;28;20040;-62
2024/03/06 11:59:07;;;;;;;33.40;31.20;;;;;;;;;;5060472;28;20466;-60
2024/03/06 12:01:54;;;;;;;29.90;28.13;;;;;;;;;;5060697;28;20105;-60
2024/03/06 12:04:41;;;;;;;32.80;30.85;;;;;;;;;;5057485;28;20731;-60
2024/03/06 12:07:27;;;;;;;30.65;28.85;;;;;;;;;;5061918;28;20028;-60
2024/03/06 12:10:13;;;;;;;33.35;31.10;;;;;;;;;;5060273;28;20032;-59
2024/03/06 12:12:58;;;;;;;36.05;33.95;;;;;;;;;;5060969;28;20164;-61
2024/03/06 12:15:45;;;;;;;35.95;33.92;;;;;;;;;;5060576;28;20029;-62
2024/03/06 12:18:31;;;;;;;30.73;28.92;;;;;;;;;;5062052;28;20067;-61
2024/03/06 12:21:16;;;;;;;34.33;32.25;;;;;;;;;;5061455;28;20025;-62
2024/03/06 12:24:06;;;;;;;30.45;28.75;;;;;;;;;;5060191;28;20400;-60
2024/03/06 12:27:04;;;;;;;33.75;31.70;;;;;;;;;;5061791;28;20117;-60
2024/03/06 12:29:52;;;;;;;31.40;29.48;;;;;;;;;;5058188;28;20098;-59
2024/03/06 12:32:39;;;;;;;33.35;31.42;;;;;;;;;;5058613;28;20037;-61
2024/03/06 12:35:26;;;;;;;40.15;37.70;;;;;;;;;;5060998;28;20090;-60
2024/03/06 12:38:15;;;;;;;34.25;32.25;;;;;;;;;;5061303;28;20370;-60
2024/03/06 12:41:01;;;;;;;32.85;30.95;;;;;;;;;;5059279;28;20043;-60
2024/03/06 12:43:47;;;;;;;33.72;31.50;;;;;;;;;;5060041;28;20590;-59
2024/03/06 12:46:32;;;;;;;35.85;33.85;;;;;;;;;;5058617;28;20047;-59
2024/03/06 12:49:18;;;;;;;36.97;35.05;;;;;;;;;;5062146;28;20044;-59
2024/03/06 12:52:04;;;;;;;37.30;35.25;;;;;;;;;;5058907;28;20043;-60
2024/03/06 12:54:50;;;;;;;35.30;33.08;;;;;;;;;;5060796;28;20962;-60
2024/03/06 12:57:36;;;;;;;31.92;29.88;;;;;;;;;;5060902;28;20872;-59
2024/03/06 13:00:22;;;;;;;37.13;34.58;;;;;;;;;;5063660;28;20458;-60
2024/03/06 13:03:08;;;;;;;33.45;31.45;;;;;;;;;;5060786;28;20044;-59
2024/03/06 13:05:53;;;;;;;39.38;36.88;;;;;;;;;;5062203;28;20033;-59
2024/03/06 13:08:39;;;;;;;33.75;31.85;;;;;;;;;;5054236;28;20032;-60
2024/03/06 13:11:25;;;;;;;35.70;33.70;;;;;;;;;;5061147;28;20066;-59
2024/03/06 13:14:11;;;;;;;40.03;37.80;;;;;;;;;;5056793;28;20040;-59
2024/03/06 13:16:57;;;;;;;34.83;32.35;;;;;;;;;;5061248;28;20581;-59
2024/03/06 13:19:43;;;;;;;34.63;32.63;;;;;;;;;;5058448;28;20045;-60
2024/03/06 13:22:28;;;;;;;32.95;31.13;;;;;;;;;;5059862;28;20102;-59
2024/03/06 13:25:14;;;;;;;31.98;30.08;;;;;;;;;;5058392;28;20441;-59
2024/03/06 13:27:59;;;;;;;32.75;30.85;;;;;;;;;;5060516;28;20638;-59
2024/03/06 13:30:45;;;;;;;32.72;30.85;;;;;;;;;;5056724;28;20065;-60
2024/03/06 13:33:31;;;;;;;33.63;31.65;;;;;;;;;;5059525;28;20055;-60
2024/03/06 13:36:16;;;;;;;32.35;30.42;;;;;;;;;;5061057;28;20102;-60
2024/03/06 13:39:02;;;;;;;34.67;32.42;;;;;;;;;;5061597;28;20036;-60
2024/03/06 13:41:47;;;;;;;36.55;34.00;;;;;;;;;;5045163;28;20686;-60
2024/03/06 13:44:35;;;;;;;33.35;31.45;;;;;;;;;;5042802;28;20606;-60
2024/03/06 13:47:20;;;;;;;33.60;31.52;;;;;;;;;;5057670;28;20128;-60
2024/03/06 13:50:08;;;;;;;35.15;33.25;;;;;;;;;;5058239;28;20058;-60
2024/03/06 13:52:54;;;;;;;36.90;34.85;;;;;;;;;;5058416;28;20055;-60
2024/03/06 13:55:40;;;;;;;36.95;34.88;;;;;;;;;;5057212;28;20059;-61
2024/03/06 13:58:26;;;;;;;37.97;35.38;;;;;;;;;;5045075;28;20112;-60
2024/03/06 14:01:12;;;;;;;35.33;33.33;;;;;;;;;;5058930;28;20040;-60
2024/03/06 14:03:57;;;;;;;38.30;36.08;;;;;;;;;;5059193;28;20040;-60
2024/03/06 14:06:44;;;;;;;36.72;34.63;;;;;;;;;;5060806;28;20039;-60
2024/03/06 14:09:30;;;;;;;35.38;33.08;;;;;;;;;;5059264;28;20033;-60
2024/03/06 14:12:16;;;;;;;35.63;33.45;;;;;;;;;;5057422;28;20421;-60
2024/03/06 14:15:03;;;;;;;35.15;32.92;;;;;;;;;;5053329;28;20033;-60
2024/03/06 14:17:49;;;;;;;35.67;33.70;;;;;;;;;;5055348;28;20047;-60
2024/03/06 14:20:35;;;;;;;34.15;31.70;;;;;;;;;;5060190;28;20676;-60
2024/03/06 14:23:20;;;;;;;32.90;30.90;;;;;;;;;;5059814;28;20064;-60
2024/03/06 14:26:06;;;;;;;32.05;30.25;;;;;;;;;;5059007;28;20106;-60
2024/03/06 14:28:51;;;;;;;34.63;32.53;;;;;;;;;;5057911;28;20039;-60
2024/03/06 14:31:37;;;;;;;34.35;32.45;;;;;;;;;;5059493;28;20040;-60
2024/03/06 14:34:23;;;;;;;31.83;30.02;;;;;;;;;;5062869;28;20131;-61
2024/03/06 14:37:09;;;;;;;31.27;29.13;;;;;;;;;;5059432;28;20040;-60
2024/03/06 14:39:55;;;;;;;33.17;31.15;;;;;;;;;;5059031;28;20174;-60
2024/03/06 14:42:41;;;;;;;33.30;31.48;;;;;;;;;;5055872;28;20048;-61
2024/03/06 14:45:27;;;;;;;33.13;30.92;;;;;;;;;;5059439;28;20032;-61
2024/03/06 14:48:12;;;;;;;33.55;31.63;;;;;;;;;;5056157;28;20137;-62
2024/03/06 14:50:58;;;;;;;31.40;29.60;;;;;;;;;;5057159;28;20037;-61
2024/03/06 14:53:44;;;;;;;36.38;34.33;;;;;;;;;;5054081;28;20389;-61
2024/03/06 14:56:30;;;;;;;33.67;31.77;;;;;;;;;;5056802;28;20052;-62
2024/03/06 14:59:16;;;;;;;35.78;33.80;;;;;;;;;;5056979;28;20044;-60
2024/03/06 15:02:03;;;;;;;31.67;29.88;;;;;;;;;;5057339;28;20090;-61
2024/03/06 15:04:49;;;;;;;34.45;32.35;;;;;;;;;;5056359;28;20043;-61
2024/03/06 15:07:34;;;;;;;34.92;33.00;;;;;;;;;;5057231;28;20025;-61
2024/03/06 15:10:20;;;;;;;33.38;31.48;;;;;;;;;;5056316;28;20454;-62
2024/03/06 15:13:05;;;;;;;36.17;34.17;;;;;;;;;;5058319;28;20048;-61
2024/03/06 15:15:51;;;;;;;32.95;31.15;;;;;;;;;;5055904;28;20040;-60
2024/03/06 15:18:37;;;;;;;34.10;32.13;;;;;;;;;;5058225;28;20048;-59
2024/03/06 15:21:23;;;;;;;34.63;32.63;;;;;;;;;;5058396;28;20481;-60
2024/03/06 15:24:09;;;;;;;30.15;28.48;;;;;;;;;;5057138;28;20838;-60
2024/03/06 15:26:54;;;;;;;33.50;31.50;;;;;;;;;;5062604;28;20032;-60
2024/03/06 15:29:40;;;;;;;37.97;35.65;;;;;;;;;;5059363;28;20025;-59
2024/03/06 15:32:26;;;;;;;31.30;29.45;;;;;;;;;;5059261;28;20517;-60
2024/03/06 15:35:12;;;;;;;31.58;29.77;;;;;;;;;;5063156;28;20605;-60
2024/03/06 15:37:57;;;;;;;29.52;27.88;;;;;;;;;;5062562;28;20028;-60
2024/03/06 15:40:43;;;;;;;31.88;29.92;;;;;;;;;;5058941;28;20558;-60
2024/03/06 15:43:28;;;;;;;30.92;29.23;;;;;;;;;;5063353;28;20068;-61
2024/03/06 15:46:14;;;;;;;32.15;30.35;;;;;;;;;;5058639;28;20121;-61
2024/03/06 15:49:06;;;;;;;32.95;31.13;;;;;;;;;;5060629;28;20466;-60
2024/03/06 15:51:53;;;;;;;31.65;29.40;;;;;;;;;;5059859;28;20048;-61
2024/03/06 15:54:39;;;;;;;33.20;31.05;;;;;;;;;;5057759;28;20187;-60
2024/03/06 15:57:24;;;;;;;31.17;29.48;;;;;;;;;;5060202;28;20124;-60
2024/03/06 16:00:14;;;;;;;33.15;31.13;;;;;;;;;;5062863;28;20028;-60
2024/03/06 16:03:00;;;;;;;35.25;32.95;;;;;;;;;;5060604;28;20041;-61
2024/03/06 16:05:47;;;;;;;36.20;34.22;;;;;;;;;;5059787;28;20037;-60
2024/03/06 16:08:32;;;;;;;38.80;36.33;;;;;;;;;;5060468;28;20085;-60